Terminal Aerodrome Forecast
Issued by NWS Tallahassee, FL

Home | Current Version | Previous Version | Text Only | Print | Product List | Glossary On
Versions: 1 2 3 4 5 6 7 8 9 10 11 12
000
FTUS42 KTAE 201100
TAFTLH
TAF
KTLH 201132Z 2012/2112 04004KT P6SM BKN050 OVC100
     FM210300 05007KT P6SM OVC025
     FM210800 07005KT P6SM OVC008=

USA.gov is the U.S. government's official web portal to all federal, state and local government web resources and services.